createdAt,value
2017-12-05T00:00:08.738Z,21.21
2017-12-05T00:01:22.369Z,21.12
2017-12-05T00:02:36.048Z,21.17
2017-12-05T00:03:50.093Z,21.09
2017-12-05T00:05:03.218Z,21.1
2017-12-05T00:06:16.356Z,21.09
2017-12-05T00:07:30.031Z,21.09
2017-12-05T00:08:43.173Z,21.1
2017-12-05T00:09:57.003Z,21.07
2017-12-05T00:11:10.183Z,21.07
2017-12-05T00:12:23.322Z,21.09
2017-12-05T00:13:35.988Z,21.13
2017-12-05T00:14:49.657Z,21.17
2017-12-05T00:16:03.293Z,21.12
2017-12-05T00:17:16.408Z,21.16
2017-12-05T00:18:30.083Z,21.12
2017-12-05T00:19:43.738Z,21.13
2017-12-05T00:20:57.444Z,21.1
2017-12-05T00:22:10.068Z,21.04
2017-12-05T00:23:23.254Z,21.04
2017-12-05T00:24:36.902Z,21.01
2017-12-05T00:25:50.063Z,20.97
2017-12-05T00:27:03.724Z,21.01
2017-12-05T00:28:16.836Z,20.97
2017-12-05T00:29:30.515Z,21.04
2017-12-05T00:30:44.240Z,20.97
2017-12-05T00:31:57.910Z,21.01
2017-12-05T00:33:11.596Z,20.99
2017-12-05T00:34:25.286Z,21.04
2017-12-05T00:35:38.952Z,21.14
2017-12-05T00:36:52.631Z,21.16
2017-12-05T00:38:06.281Z,21.19
2017-12-05T00:39:19.905Z,21.12
2017-12-05T00:40:33.578Z,21.16
2017-12-05T00:41:47.220Z,21.17
2017-12-05T00:43:00.903Z,21.22
2017-12-05T00:44:14.543Z,21.21
2017-12-05T00:45:27.689Z,21.17
2017-12-05T00:46:41.285Z,21.13
2017-12-05T00:47:54.936Z,21.16
2017-12-05T00:49:08.114Z,21.16
2017-12-05T00:50:21.785Z,21.12
2017-12-05T00:51:35.472Z,21.1
2017-12-05T00:52:49.151Z,21.07
2017-12-05T00:54:02.346Z,21.1
2017-12-05T00:55:15.977Z,20.97
2017-12-05T00:56:29.840Z,20.95
2017-12-05T00:57:43.001Z,20.87
2017-12-05T00:58:56.653Z,20.8
2017-12-05T01:00:10.292Z,20.85
2017-12-05T01:01:23.948Z,20.59
2017-12-05T01:02:37.084Z,20.67
2017-12-05T01:03:50.728Z,20.64
2017-12-05T01:05:04.448Z,20.52
2017-12-05T01:06:18.140Z,20.58
2017-12-05T01:07:31.890Z,20.57
2017-12-05T01:08:45.561Z,20.61
2017-12-05T01:09:58.688Z,20.42
2017-12-05T01:11:12.357Z,20.48
2017-12-05T01:12:25.500Z,20.43
2017-12-05T01:13:39.174Z,20.52
2017-12-05T01:14:53.023Z,20.51
2017-12-05T01:16:06.667Z,20.5
2017-12-05T01:17:19.779Z,20.43
2017-12-05T01:18:33.437Z,20.58
2017-12-05T01:19:47.129Z,20.58
2017-12-05T01:21:01.331Z,20.55
2017-12-05T01:22:15.001Z,20.55
2017-12-05T01:23:27.637Z,20.61
2017-12-05T01:25:12.393Z,20.55
2017-12-05T01:26:25.496Z,20.58
2017-12-05T01:27:39.115Z,20.42
2017-12-05T01:28:51.760Z,20.5
2017-12-05T01:30:04.868Z,20.54
2017-12-05T01:31:18.500Z,20.58
2017-12-05T01:32:31.146Z,20.55
2017-12-05T01:33:44.809Z,20.62
2017-12-05T01:34:58.132Z,20.48
2017-12-05T01:36:11.767Z,20.54
2017-12-05T01:37:25.445Z,20.67
2017-12-05T01:38:39.137Z,20.72
2017-12-05T01:39:52.807Z,20.77
2017-12-05T01:41:06.497Z,20.79
2017-12-05T01:42:20.149Z,20.69
2017-12-05T01:43:33.821Z,20.73
2017-12-05T01:44:47.676Z,20.61
2017-12-05T01:46:01.035Z,20.62
2017-12-05T01:47:14.013Z,20.62
2017-12-05T01:48:27.020Z,20.64
2017-12-05T01:49:39.981Z,20.67
2017-12-05T01:50:53.196Z,20.64
2017-12-05T01:52:05.264Z,20.76
2017-12-05T01:53:17.763Z,20.74
2017-12-05T01:54:30.735Z,20.69
2017-12-05T01:55:43.707Z,20.73
2017-12-05T01:56:55.763Z,20.74
2017-12-05T01:58:08.754Z,20.79
2017-12-05T01:59:21.747Z,20.79
2017-12-05T02:00:34.711Z,20.7
2017-12-05T02:01:47.662Z,20.7
2017-12-05T02:03:00.612Z,20.73
2017-12-05T02:04:13.599Z,20.59
2017-12-05T02:05:26.092Z,20.58
2017-12-05T02:06:38.613Z,20.57
2017-12-05T02:07:51.566Z,20.58
2017-12-05T02:09:04.520Z,20.57
2017-12-05T02:10:17.028Z,20.55
2017-12-05T02:11:30.218Z,20.58
2017-12-05T02:12:43.211Z,20.42
2017-12-05T02:13:56.196Z,20.57
2017-12-05T02:15:08.733Z,20.48
2017-12-05T02:16:21.879Z,20.47
2017-12-05T02:17:34.820Z,20.51
2017-12-05T02:18:46.835Z,20.47
2017-12-05T02:19:59.855Z,20.58
2017-12-05T02:21:11.874Z,20.51
2017-12-05T02:22:24.834Z,20.48
2017-12-05T02:23:37.829Z,20.47
2017-12-05T02:24:50.792Z,20.35
2017-12-05T02:26:03.259Z,20.31
2017-12-05T02:27:15.783Z,20.32
2017-12-05T02:28:28.738Z,20.31
2017-12-05T02:29:41.696Z,20.29
2017-12-05T02:30:54.655Z,20.28
2017-12-05T02:32:07.202Z,20.21
2017-12-05T02:33:20.171Z,20.29
2017-12-05T02:34:32.672Z,20.31
2017-12-05T02:35:45.645Z,20.31
2017-12-05T02:36:58.626Z,20.35
2017-12-05T02:38:10.918Z,20.38
2017-12-05T02:39:23.894Z,20.31
2017-12-05T02:40:36.882Z,20.41
2017-12-05T02:41:49.828Z,20.41
2017-12-05T02:43:02.832Z,20.41
2017-12-05T02:44:15.336Z,20.35
2017-12-05T02:45:27.846Z,20.32
2017-12-05T02:46:40.838Z,20.33
2017-12-05T02:47:53.862Z,20.33
2017-12-05T02:49:07.022Z,20.26
2017-12-05T02:50:20.027Z,20.28
2017-12-05T02:51:33.205Z,20.26
2017-12-05T02:52:46.180Z,20.21
2017-12-05T02:53:59.143Z,20.26
2017-12-05T02:55:12.115Z,20.28
2017-12-05T02:56:25.390Z,20.24
2017-12-05T02:57:38.355Z,20.26
2017-12-05T02:58:51.344Z,20.17
2017-12-05T03:00:03.858Z,20.18
2017-12-05T03:01:16.327Z,20.18
2017-12-05T03:02:29.289Z,20.24
2017-12-05T03:03:41.856Z,20.21
2017-12-05T03:04:54.806Z,20.1
2017-12-05T03:06:07.266Z,20.1
2017-12-05T03:07:19.788Z,20.06
2017-12-05T03:08:32.753Z,20.13
2017-12-05T03:09:45.755Z,20.08
2017-12-05T03:10:58.708Z,20.14
2017-12-05T03:12:11.210Z,20.06
2017-12-05T03:13:24.174Z,20.13
2017-12-05T03:14:37.127Z,20.1
2017-12-05T03:15:50.073Z,20.14
2017-12-05T03:17:03.060Z,20.13
2017-12-05T03:18:15.583Z,20.13
2017-12-05T03:19:28.536Z,20.08
2017-12-05T03:20:41.500Z,20.14
2017-12-05T03:21:54.466Z,20.1
2017-12-05T03:23:07.432Z,20.13
2017-12-05T03:24:20.365Z,20.08
2017-12-05T03:25:33.308Z,20.16
2017-12-05T03:26:45.560Z,20.1
2017-12-05T03:27:58.485Z,20.17
2017-12-05T03:29:11.446Z,20.1
2017-12-05T03:30:24.442Z,20.06
2017-12-05T03:31:37.410Z,20.13
2017-12-05T03:32:50.130Z,20.08
2017-12-05T03:34:03.107Z,20.08
2017-12-05T03:35:16.113Z,20.11
2017-12-05T03:36:28.148Z,20.14
2017-12-05T03:37:40.661Z,20.11
2017-12-05T03:38:53.651Z,20.1
2017-12-05T03:40:06.420Z,20.08
2017-12-05T03:41:18.889Z,19.98
2017-12-05T03:42:31.845Z,20.05
2017-12-05T03:43:45.017Z,20.05
2017-12-05T03:44:57.956Z,20.03
2017-12-05T03:46:10.889Z,19.95
2017-12-05T03:47:23.910Z,20.08
2017-12-05T03:48:36.902Z,20.06
2017-12-05T03:49:49.895Z,20.05
2017-12-05T03:51:02.865Z,19.98
2017-12-05T03:52:15.386Z,20.05
2017-12-05T03:53:59.095Z,19.96
2017-12-05T03:55:12.090Z,19.96
2017-12-05T03:56:25.102Z,19.96
2017-12-05T03:57:38.264Z,19.98
2017-12-05T03:58:51.227Z,19.94
2017-12-05T04:00:04.379Z,19.87
2017-12-05T04:01:16.892Z,19.96
2017-12-05T04:02:29.877Z,19.84
2017-12-05T04:03:42.356Z,19.91
2017-12-05T04:04:54.856Z,19.86
2017-12-05T04:06:07.358Z,19.91
2017-12-05T04:07:19.405Z,19.86
2017-12-05T04:08:32.426Z,19.84
2017-12-05T04:09:45.420Z,19.8
2017-12-05T04:10:57.936Z,19.81
2017-12-05T04:12:10.478Z,19.78
2017-12-05T04:13:23.439Z,19.84
2017-12-05T04:14:36.409Z,19.74
2017-12-05T04:15:49.594Z,19.76
2017-12-05T04:17:02.127Z,19.71
2017-12-05T04:18:14.675Z,19.69
2017-12-05T04:19:27.665Z,19.76
2017-12-05T04:20:40.161Z,19.76
2017-12-05T04:21:52.619Z,19.69
2017-12-05T04:23:04.664Z,19.76
2017-12-05T04:24:17.650Z,19.71
2017-12-05T04:25:30.630Z,19.69
2017-12-05T04:26:43.606Z,19.78
2017-12-05T04:27:56.100Z,19.68
2017-12-05T04:29:08.150Z,19.66
2017-12-05T04:30:21.097Z,19.69
2017-12-05T04:31:34.073Z,19.65
2017-12-05T04:32:47.247Z,19.68
2017-12-05T04:34:00.182Z,19.73
2017-12-05T04:35:13.172Z,19.71
2017-12-05T04:36:26.215Z,19.63
2017-12-05T04:37:39.180Z,19.68
2017-12-05T04:38:52.341Z,19.69
2017-12-05T04:40:05.345Z,19.73
2017-12-05T04:41:18.297Z,19.73
2017-12-05T04:42:31.235Z,19.65
2017-12-05T04:43:44.226Z,19.69
2017-12-05T04:44:56.733Z,19.61
2017-12-05T04:46:09.249Z,19.61
2017-12-05T04:47:22.244Z,19.59
2017-12-05T04:48:35.213Z,19.61
2017-12-05T04:49:48.176Z,19.56
2017-12-05T04:51:00.976Z,19.65
2017-12-05T04:52:13.963Z,19.54
2017-12-05T04:53:26.477Z,19.56
2017-12-05T04:54:38.950Z,19.59
2017-12-05T04:55:51.455Z,19.61
2017-12-05T04:57:04.393Z,19.55
2017-12-05T04:58:17.389Z,19.51
2017-12-05T04:59:30.375Z,19.54
2017-12-05T05:00:42.435Z,19.51
2017-12-05T05:01:55.411Z,19.58
2017-12-05T05:03:07.870Z,19.55
2017-12-05T05:04:20.888Z,19.5
2017-12-05T05:05:33.401Z,19.58
2017-12-05T05:06:46.375Z,19.54
2017-12-05T05:07:59.366Z,19.62
2017-12-05T05:09:12.321Z,19.59
2017-12-05T05:10:24.820Z,19.56
2017-12-05T05:11:37.788Z,19.56
2017-12-05T05:12:50.766Z,19.54
2017-12-05T05:14:03.728Z,19.51
2017-12-05T05:15:16.455Z,19.54
2017-12-05T05:16:28.945Z,19.56
2017-12-05T05:17:41.933Z,19.54
2017-12-05T05:18:55.171Z,19.54
2017-12-05T05:20:07.643Z,19.73
2017-12-05T05:21:20.580Z,19.62
2017-12-05T05:22:33.576Z,19.65
2017-12-05T05:23:46.750Z,19.71
2017-12-05T05:24:59.727Z,19.63
2017-12-05T05:26:12.689Z,19.63
2017-12-05T05:27:25.695Z,19.59
2017-12-05T05:28:38.651Z,19.56
2017-12-05T05:29:51.617Z,19.59
2017-12-05T05:31:04.368Z,19.56
2017-12-05T05:32:17.390Z,19.55
2017-12-05T05:33:30.178Z,19.46
2017-12-05T05:34:43.134Z,19.62
2017-12-05T05:35:56.122Z,19.43
2017-12-05T05:37:08.617Z,19.46
2017-12-05T05:38:21.084Z,19.54
2017-12-05T05:39:34.084Z,19.51
2017-12-05T05:40:47.084Z,19.44
2017-12-05T05:42:00.075Z,19.47
2017-12-05T05:43:13.025Z,19.48
2017-12-05T05:44:25.984Z,19.47
2017-12-05T05:45:38.987Z,19.4
2017-12-05T05:46:51.945Z,19.55
2017-12-05T05:48:04.962Z,19.46
2017-12-05T05:49:17.868Z,19.44
2017-12-05T05:50:30.864Z,19.48
2017-12-05T05:51:43.413Z,19.46
2017-12-05T05:52:55.931Z,19.4
2017-12-05T05:54:08.911Z,19.46
2017-12-05T05:55:21.934Z,19.41
2017-12-05T05:56:34.891Z,19.33
2017-12-05T05:57:47.850Z,19.48
2017-12-05T05:59:00.816Z,19.36
2017-12-05T06:00:13.807Z,19.46
2017-12-05T06:01:26.328Z,19.33
2017-12-05T06:02:39.518Z,19.4
2017-12-05T06:03:52.474Z,19.29
2017-12-05T06:05:05.524Z,19.37
2017-12-05T06:06:18.493Z,19.41
2017-12-05T06:07:29.610Z,19.4
2017-12-05T06:08:42.164Z,19.4
2017-12-05T06:09:54.674Z,19.37
2017-12-05T06:11:07.207Z,19.41
2017-12-05T06:12:20.197Z,19.41
2017-12-05T06:13:33.161Z,19.41
2017-12-05T06:14:46.158Z,19.37
2017-12-05T06:15:59.126Z,19.39
2017-12-05T06:17:11.639Z,19.4
2017-12-05T06:18:24.657Z,19.37
2017-12-05T06:19:37.640Z,19.4
2017-12-05T06:20:50.173Z,19.37
2017-12-05T06:22:02.681Z,19.4
2017-12-05T06:23:15.652Z,19.36
2017-12-05T06:24:28.648Z,19.4
2017-12-05T06:25:41.159Z,19.39
2017-12-05T06:26:54.160Z,19.47
2017-12-05T06:28:06.655Z,19.36
2017-12-05T06:29:19.615Z,19.37
2017-12-05T06:30:32.625Z,19.44
2017-12-05T06:31:45.624Z,19.32
2017-12-05T06:32:58.682Z,19.36
2017-12-05T06:34:11.234Z,19.47
2017-12-05T06:35:24.195Z,19.44
2017-12-05T06:36:37.194Z,19.36
2017-12-05T06:37:49.701Z,19.46
2017-12-05T06:39:02.687Z,19.48
2017-12-05T06:40:15.628Z,19.39
2017-12-05T06:41:28.101Z,19.39
2017-12-05T06:42:40.135Z,19.39
2017-12-05T06:43:53.131Z,19.44
2017-12-05T06:45:06.307Z,19.46
2017-12-05T06:46:19.321Z,19.46
2017-12-05T06:47:32.292Z,19.37
2017-12-05T06:48:45.265Z,19.32
2017-12-05T06:49:57.768Z,19.4
2017-12-05T06:51:09.836Z,19.32
2017-12-05T06:52:22.806Z,19.31
2017-12-05T06:53:35.962Z,19.25
2017-12-05T06:54:48.461Z,19.31
2017-12-05T06:56:01.398Z,19.32
2017-12-05T06:57:14.425Z,19.23
2017-12-05T06:58:26.939Z,19.25
2017-12-05T06:59:39.896Z,19.26
2017-12-05T07:00:51.933Z,19.21
2017-12-05T07:02:04.913Z,19.14
2017-12-05T07:03:17.853Z,19.19
2017-12-05T07:04:30.388Z,19.16
2017-12-05T07:05:43.342Z,19.13
2017-12-05T07:06:56.333Z,19.21
2017-12-05T07:08:09.311Z,19.1
2017-12-05T07:09:21.839Z,19.13
2017-12-05T07:10:34.860Z,19.21
2017-12-05T07:11:47.857Z,19.19
2017-12-05T07:13:00.399Z,19.1
2017-12-05T07:14:13.396Z,19.07
2017-12-05T07:15:26.467Z,19.04
2017-12-05T07:16:39.475Z,19.08
2017-12-05T07:17:52.407Z,19.06
2017-12-05T07:19:04.919Z,19.07
2017-12-05T07:20:18.119Z,19.07
2017-12-05T07:21:30.647Z,19.13
2017-12-05T07:22:43.134Z,18.95
2017-12-05T07:23:56.292Z,18.95
2017-12-05T07:25:08.769Z,18.98
2017-12-05T07:26:21.741Z,18.99
2017-12-05T07:27:34.706Z,19.04
2017-12-05T07:28:47.645Z,18.98
2017-12-05T07:30:00.705Z,19.06
2017-12-05T07:31:12.778Z,18.91
2017-12-05T07:32:25.742Z,19.04
2017-12-05T07:33:38.710Z,19.02
2017-12-05T07:34:51.234Z,18.98
2017-12-05T07:36:03.778Z,18.92
2017-12-05T07:37:16.767Z,18.95
2017-12-05T07:38:29.797Z,18.99
2017-12-05T07:39:42.742Z,19.04
2017-12-05T07:40:55.426Z,18.99
2017-12-05T07:42:08.368Z,18.99
2017-12-05T07:43:20.892Z,18.98
2017-12-05T07:44:32.932Z,19.02
2017-12-05T07:45:45.970Z,19.04
2017-12-05T07:46:58.501Z,18.94
2017-12-05T07:48:11.484Z,18.98
2017-12-05T07:49:24.491Z,18.88
2017-12-05T07:50:36.982Z,19
2017-12-05T07:51:49.981Z,18.99
2017-12-05T07:53:01.540Z,18.87
2017-12-05T07:54:13.846Z,18.92
2017-12-05T07:55:26.319Z,18.87
2017-12-05T07:56:39.560Z,18.92
2017-12-05T07:57:51.118Z,18.94
2017-12-05T07:59:03.611Z,18.85
2017-12-05T08:00:16.551Z,18.9
2017-12-05T08:01:29.079Z,18.88
2017-12-05T08:02:42.052Z,18.9
2017-12-05T08:03:55.006Z,18.87
2017-12-05T08:05:07.956Z,18.91
2017-12-05T08:06:20.480Z,18.87
2017-12-05T08:07:33.479Z,18.99
2017-12-05T08:08:45.554Z,18.88
2017-12-05T08:09:58.531Z,18.87
2017-12-05T08:11:11.733Z,18.94
2017-12-05T08:12:24.732Z,18.95
2017-12-05T08:13:37.687Z,18.98
2017-12-05T08:14:50.648Z,18.91
2017-12-05T08:16:03.835Z,19
2017-12-05T08:17:15.872Z,18.9
2017-12-05T08:18:28.373Z,18.95
2017-12-05T08:19:41.355Z,18.99
2017-12-05T08:20:53.919Z,19.02
2017-12-05T08:22:06.443Z,18.92
2017-12-05T08:23:19.370Z,19.07
2017-12-05T08:24:32.356Z,19.06
2017-12-05T08:25:44.851Z,18.98
2017-12-05T08:26:57.818Z,19.07
2017-12-05T08:28:10.787Z,19.1
2017-12-05T08:29:23.757Z,19.04
2017-12-05T08:30:36.743Z,19.08
2017-12-05T08:31:49.714Z,19.16
2017-12-05T08:33:01.746Z,19.1
2017-12-05T08:34:14.232Z,19.13
2017-12-05T08:35:27.223Z,19.11
2017-12-05T08:36:39.711Z,19.1
2017-12-05T08:37:52.709Z,19.19
2017-12-05T08:39:05.715Z,19.23
2017-12-05T08:40:17.774Z,19.36
2017-12-05T08:41:30.777Z,19.41
2017-12-05T08:42:43.279Z,19.63
2017-12-05T08:43:55.302Z,19.74
2017-12-05T08:45:08.250Z,19.73
2017-12-05T08:46:21.256Z,19.71
2017-12-05T08:47:34.430Z,19.71
2017-12-05T08:48:47.376Z,19.68
2017-12-05T08:49:59.903Z,19.77
2017-12-05T08:51:12.919Z,19.76
2017-12-05T08:52:25.858Z,19.76
2017-12-05T08:53:39.073Z,19.77
2017-12-05T08:54:52.063Z,19.71
2017-12-05T08:56:04.603Z,19.84
2017-12-05T08:57:16.659Z,20.06
2017-12-05T08:58:29.175Z,20.48
2017-12-05T08:59:42.151Z,20.88
2017-12-05T09:00:54.617Z,21.12
2017-12-05T09:02:07.570Z,21.34
2017-12-05T09:03:20.531Z,21.59
2017-12-05T09:04:33.058Z,21.86
2017-12-05T09:05:45.603Z,22.03
2017-12-05T09:06:58.781Z,22.22
2017-12-05T09:08:10.851Z,22.45
2017-12-05T09:09:23.846Z,22.57
2017-12-05T09:10:36.841Z,22.61
2017-12-05T09:11:49.361Z,22.65
2017-12-05T09:13:01.908Z,22.65
2017-12-05T09:14:14.878Z,22.91
2017-12-05T09:15:27.809Z,23.17
2017-12-05T09:16:40.806Z,23.23
2017-12-05T09:17:54.299Z,23.33
2017-12-05T09:19:07.304Z,23.51
2017-12-05T09:20:20.290Z,23.42
2017-12-05T09:21:33.287Z,23.16
2017-12-05T09:22:45.809Z,22.85
2017-12-05T09:23:58.477Z,22.88
2017-12-05T09:25:11.011Z,22.72
2017-12-05T09:26:23.507Z,22.51
2017-12-05T09:27:36.441Z,22.07
2017-12-05T09:28:49.486Z,22
2017-12-05T09:30:02.514Z,21.74
2017-12-05T09:31:15.519Z,21.82
2017-12-05T09:32:28.690Z,21.92
2017-12-05T09:33:41.633Z,21.99
2017-12-05T09:34:54.589Z,22.18
2017-12-05T09:36:07.103Z,22.7
2017-12-05T09:37:20.085Z,23.25
2017-12-05T09:38:33.282Z,23.27
2017-12-05T09:39:46.213Z,22.97
2017-12-05T09:40:58.753Z,22.9
2017-12-05T09:42:11.737Z,22.82
2017-12-05T09:43:23.811Z,23.04
2017-12-05T09:44:35.856Z,23.25
2017-12-05T09:45:48.873Z,23.84
2017-12-05T09:47:01.460Z,24.31
2017-12-05T09:48:14.429Z,24.98
2017-12-05T09:49:27.383Z,25.54
2017-12-05T09:50:40.413Z,26.06
2017-12-05T09:51:53.421Z,26.2
2017-12-05T09:53:06.102Z,25.92
2017-12-05T09:54:18.149Z,25.67
2017-12-05T09:55:31.143Z,25.47
2017-12-05T09:56:44.182Z,25.61
2017-12-05T09:57:57.165Z,25.67
2017-12-05T09:59:09.679Z,25.82
2017-12-05T10:00:22.636Z,25.87
2017-12-05T10:01:35.649Z,25.65
2017-12-05T10:02:48.179Z,25.2
2017-12-05T10:04:00.233Z,24.9
2017-12-05T10:05:13.219Z,25.02
2017-12-05T10:06:26.187Z,25.2
2017-12-05T10:07:39.128Z,25.5
2017-12-05T10:08:51.178Z,25.57
2017-12-05T10:10:04.201Z,25.58
2017-12-05T10:11:16.751Z,25.98
2017-12-05T10:12:29.724Z,26.63
2017-12-05T10:13:42.730Z,26.72
2017-12-05T10:14:55.892Z,26.73
2017-12-05T10:16:08.981Z,26.91
2017-12-05T10:17:21.039Z,26.67
2017-12-05T10:18:33.563Z,26.39
2017-12-05T10:19:46.532Z,26.17
2017-12-05T10:20:59.525Z,26.09
2017-12-05T10:22:12.549Z,26.33
2017-12-05T10:23:25.142Z,26.57
2017-12-05T10:24:38.141Z,26.72
2017-12-05T10:25:51.112Z,27.24
2017-12-05T10:27:04.128Z,27.75
2017-12-05T10:28:17.098Z,28.18
2017-12-05T10:29:30.095Z,28.27
2017-12-05T10:30:42.658Z,28.18
2017-12-05T10:31:55.626Z,28.24
2017-12-05T10:33:08.588Z,28.73
2017-12-05T10:34:21.592Z,28.96
2017-12-05T10:35:34.571Z,29.19
2017-12-05T10:36:46.616Z,29.48
2017-12-05T10:37:59.601Z,29.74
2017-12-05T10:39:12.112Z,29.79
2017-12-05T10:40:24.338Z,29.6
2017-12-05T10:41:37.307Z,29.64
2017-12-05T10:42:50.330Z,29.45
2017-12-05T10:44:03.377Z,29.36
2017-12-05T10:45:16.576Z,29.45
2017-12-05T10:46:29.539Z,29.21
2017-12-05T10:47:42.656Z,29.06
2017-12-05T10:48:55.595Z,28.92
2017-12-05T10:50:08.360Z,28.56
2017-12-05T10:51:20.844Z,27.77
2017-12-05T10:52:33.325Z,27.17
2017-12-05T10:53:46.359Z,27.12
2017-12-05T10:54:58.858Z,27.25
2017-12-05T10:56:11.395Z,26.87
2017-12-05T10:57:24.374Z,26.48
2017-12-05T10:58:36.869Z,26.32
2017-12-05T10:59:49.882Z,26.2
2017-12-05T11:01:02.395Z,25.92
2017-12-05T11:02:14.903Z,25.83
2017-12-05T11:03:27.421Z,26.15
2017-12-05T11:04:40.449Z,26.37
2017-12-05T11:05:53.552Z,26.25
2017-12-05T11:07:06.119Z,25.98
2017-12-05T11:08:19.320Z,26.18
2017-12-05T11:09:32.310Z,27.02
2017-12-05T11:10:45.264Z,27.47
2017-12-05T11:11:57.796Z,27.65
2017-12-05T11:13:10.808Z,27.12
2017-12-05T11:14:23.854Z,26.21
2017-12-05T11:15:36.812Z,25.8
2017-12-05T11:16:49.804Z,26.21
2017-12-05T11:18:02.346Z,26.77
2017-12-05T11:19:14.393Z,27.6
2017-12-05T11:20:26.939Z,27.94
2017-12-05T11:21:39.940Z,27.77
2017-12-05T11:22:52.961Z,27.77
2017-12-05T11:24:05.968Z,28.03
2017-12-05T11:25:18.494Z,28.36
2017-12-05T11:26:31.037Z,28.21
2017-12-05T11:27:44.037Z,28.55
2017-12-05T11:28:57.006Z,28.8
2017-12-05T11:30:09.098Z,28.81
2017-12-05T11:31:21.172Z,28.52
2017-12-05T11:32:33.693Z,27.99
2017-12-05T11:33:46.687Z,27.96
2017-12-05T11:34:59.704Z,28.04
2017-12-05T11:36:12.301Z,28.24
2017-12-05T11:37:25.333Z,28.55
2017-12-05T11:38:38.325Z,28.36
2017-12-05T11:39:51.323Z,28.59
2017-12-05T11:41:04.300Z,28.96
2017-12-05T11:42:16.363Z,29.42
2017-12-05T11:43:28.874Z,29.31
2017-12-05T11:44:41.904Z,28.98
2017-12-05T11:45:54.449Z,28.66
2017-12-05T11:47:07.447Z,27.84
2017-12-05T11:48:20.003Z,27.47
2017-12-05T11:49:32.512Z,27.46
2017-12-05T11:50:45.527Z,27.06
2017-12-05T11:51:58.532Z,27.1
2017-12-05T11:53:10.563Z,27.39
2017-12-05T11:54:23.109Z,27.77
2017-12-05T11:55:36.157Z,28.34
2017-12-05T11:56:48.687Z,28.61
2017-12-05T11:58:01.242Z,28.67
2017-12-05T11:59:13.785Z,28.7
2017-12-05T12:00:26.804Z,28.8
2017-12-05T12:04:31.963Z,27.66
2017-12-05T12:05:45.016Z,27.7
2017-12-05T12:07:54.215Z,28.27
2017-12-05T12:09:06.731Z,27.67
2017-12-05T12:10:19.747Z,27.6
2017-12-05T12:15:00.458Z,28.27
2017-12-05T12:16:11.575Z,28.12
2017-12-05T12:17:24.123Z,27.9
2017-12-05T12:18:36.381Z,27.85
2017-12-05T12:19:49.336Z,28.24
2017-12-05T12:21:00.951Z,28.49
2017-12-05T12:22:13.919Z,28.56
2017-12-05T12:23:26.509Z,28.85
2017-12-05T12:24:39.691Z,28.88
2017-12-05T12:25:52.676Z,29.11
2017-12-05T12:26:47.672Z,28.73
2017-12-05T12:27:04.098Z,28.73
2017-12-05T12:28:16.624Z,28.55
2017-12-05T12:29:29.178Z,28.3
2017-12-05T12:30:42.160Z,27.99
2017-12-05T12:31:55.108Z,28.18
2017-12-05T12:33:08.098Z,28.49
2017-12-05T12:34:20.596Z,28.37
2017-12-05T12:35:32.695Z,28.27
2017-12-05T12:36:45.191Z,28.34
2017-12-05T12:37:58.173Z,28.17
2017-12-05T12:39:11.109Z,28.27
2017-12-05T12:40:24.085Z,28.71
2017-12-05T12:41:36.631Z,29.09
2017-12-05T12:42:49.163Z,29.09
2017-12-05T12:44:02.158Z,28.73
2017-12-05T12:45:15.125Z,28.29
2017-12-05T12:46:28.143Z,28.18
2017-12-05T12:47:40.685Z,28.11
2017-12-05T12:48:53.661Z,28.49
2017-12-05T12:50:05.712Z,28.54
2017-12-05T12:51:18.232Z,28.73
2017-12-05T12:52:31.245Z,29.05
2017-12-05T12:53:43.755Z,29.14
2017-12-05T12:54:56.738Z,29.27
2017-12-05T15:06:34.337Z,29.64
2017-12-05T15:06:35.134Z,29.67
2017-12-05T15:06:35.928Z,29.67
2017-12-05T15:06:36.728Z,29.70
2017-12-05T15:06:37.531Z,29.67
2017-12-05T15:06:38.338Z,29.65
2017-12-05T15:06:39.145Z,29.70
2017-12-05T15:06:39.953Z,29.70
2017-12-05T15:06:40.741Z,29.64
2017-12-05T15:06:41.536Z,29.67
2017-12-05T15:06:42.338Z,29.65
2017-12-05T15:06:43.140Z,29.70
2017-12-05T15:06:44.181Z,29.71
2017-12-05T15:06:44.984Z,29.68
2017-12-05T15:06:45.781Z,29.67
2017-12-05T15:06:46.587Z,29.71
2017-12-05T15:06:47.378Z,29.67
2017-12-05T15:06:48.175Z,29.70
2017-12-05T15:06:48.978Z,29.70
2017-12-05T15:06:50.012Z,29.74
2017-12-05T15:07:24.709Z,29.48
2017-12-05T15:07:25.510Z,29.53
2017-12-05T15:07:26.302Z,29.52
2017-12-05T15:07:27.111Z,29.55
2017-12-05T15:07:27.907Z,29.49
2017-12-05T15:07:28.715Z,29.52
2017-12-05T15:07:29.521Z,29.45
2017-12-05T15:07:30.325Z,29.51
2017-12-05T15:07:31.123Z,29.53
2017-12-05T15:08:13.066Z,29.24
2017-12-05T15:09:13.047Z,29.05
2017-12-05T15:10:13.020Z,29.18
2017-12-05T15:11:13.007Z,29.31
2017-12-05T15:12:39.670Z,29.48
2017-12-05T15:13:39.650Z,29.52
2017-12-05T15:14:39.623Z,29.71
2017-12-05T15:15:39.611Z,29.78
2017-12-05T15:16:39.592Z,30.02
2017-12-05T15:17:39.575Z,30.08
2017-12-05T15:18:39.552Z,30.32
2017-12-05T15:19:39.535Z,30.42
2017-12-05T15:20:39.502Z,30.57
2017-12-05T15:21:39.487Z,30.73
2017-12-05T15:22:39.474Z,30.65
2017-12-05T15:23:39.458Z,30.34
2017-12-05T15:24:39.437Z,30.23
2017-12-05T15:25:39.418Z,30.27
2017-12-05T15:26:39.393Z,30.04
2017-12-05T15:27:39.378Z,29.92
2017-12-05T15:28:39.345Z,30.00
2017-12-05T15:29:39.342Z,29.83
2017-12-05T15:30:39.325Z,29.94
2017-12-05T15:31:39.300Z,30.27
2017-12-05T15:32:39.293Z,30.31
2017-12-05T15:33:39.270Z,30.19
2017-12-05T15:34:39.259Z,30.05
2017-12-05T15:35:39.249Z,30.37
2017-12-05T15:36:39.241Z,30.75
2017-12-05T15:37:39.225Z,30.94
2017-12-05T15:38:39.204Z,31.16
2017-12-05T15:39:39.197Z,31.35
2017-12-05T15:40:39.182Z,31.66
2017-12-05T15:41:39.170Z,31.62
2017-12-05T15:42:39.173Z,31.81
2017-12-05T15:43:39.156Z,31.99
2017-12-05T15:44:39.155Z,31.86
2017-12-05T15:45:39.148Z,31.70
2017-12-05T15:46:39.132Z,31.65
2017-12-05T15:47:39.122Z,31.73
2017-12-05T15:48:39.118Z,31.86
2017-12-05T15:49:39.096Z,31.47
2017-12-05T15:50:39.097Z,31.16
2017-12-05T15:51:39.082Z,30.80
2017-12-05T15:52:39.080Z,30.73
2017-12-05T15:53:39.069Z,30.73
2017-12-05T15:54:39.066Z,30.72
2017-12-05T15:55:39.056Z,30.86
2017-12-05T15:56:39.038Z,30.70
2017-12-05T15:57:39.039Z,30.42
2017-12-05T15:58:39.027Z,30.23
2017-12-05T15:59:39.017Z,30.22
2017-12-05T16:00:39.016Z,30.24
2017-12-05T16:01:39.001Z,30.37
2017-12-05T16:02:38.998Z,30.65
2017-12-05T16:03:38.980Z,31.12
2017-12-05T16:04:38.981Z,31.01
2017-12-05T16:05:38.965Z,30.91
2017-12-05T16:06:38.965Z,30.55
2017-12-05T16:07:38.943Z,30.45
2017-12-05T16:08:38.952Z,30.17
2017-12-05T16:09:38.932Z,29.95
2017-12-05T16:10:38.938Z,30.00
2017-12-05T16:11:38.916Z,30.10
2017-12-05T16:12:38.914Z,30.26
2017-12-05T16:13:38.915Z,30.17
2017-12-05T16:14:38.898Z,30.13
2017-12-05T16:15:38.884Z,30.20
2017-12-05T16:16:38.868Z,30.47
2017-12-05T16:17:38.863Z,30.94
2017-12-05T16:18:38.853Z,31.06
2017-12-05T16:19:38.853Z,30.89
2017-12-05T16:20:38.851Z,30.95
2017-12-05T16:21:38.834Z,30.83
2017-12-05T16:22:38.836Z,30.98
2017-12-05T16:23:38.818Z,31.09
2017-12-05T16:24:38.813Z,31.31
2017-12-05T16:25:38.811Z,31.70
2017-12-05T16:26:38.804Z,31.81
2017-12-05T16:27:38.788Z,31.65
2017-12-05T16:28:38.791Z,31.39
2017-12-05T16:29:38.774Z,31.56
2017-12-05T16:30:38.761Z,32.11
2017-12-05T16:31:38.769Z,32.47
2017-12-05T16:32:38.762Z,32.94
2017-12-05T16:33:38.751Z,32.50
2017-12-05T16:34:38.734Z,31.92
2017-12-05T16:35:38.735Z,31.46
2017-12-05T16:36:38.733Z,31.51
2017-12-05T16:37:38.724Z,31.57
2017-12-05T16:38:38.717Z,31.70
2017-12-05T16:39:38.691Z,31.66
2017-12-05T16:40:38.696Z,31.72
2017-12-05T16:41:38.684Z,31.75
2017-12-05T16:42:38.677Z,31.92
2017-12-05T16:43:38.661Z,32.22
2017-12-05T16:44:38.663Z,32.60
2017-12-05T16:45:38.655Z,32.57
2017-12-05T16:46:38.633Z,31.86
2017-12-05T16:47:38.631Z,31.10
2017-12-05T16:48:38.631Z,30.75
2017-12-05T16:49:38.616Z,31.20
2017-12-05T16:50:38.602Z,31.73
2017-12-05T16:51:38.614Z,31.68
2017-12-05T16:52:38.602Z,31.85
2017-12-05T16:53:38.582Z,32.10
2017-12-05T16:54:38.589Z,32.03
2017-12-05T16:55:38.581Z,31.80
2017-12-05T16:56:38.564Z,31.16
2017-12-05T16:57:38.562Z,30.79
2017-12-05T16:58:38.547Z,30.73
2017-12-05T16:59:38.536Z,30.92
2017-12-05T17:00:38.541Z,31.53